createdAt,value
2018-06-16T00:00:52.235Z,15.20
2018-06-16T00:03:21.031Z,15.10
2018-06-16T00:05:49.880Z,15.00
2018-06-16T00:08:18.713Z,15.00
2018-06-16T00:10:47.555Z,15.00
2018-06-16T00:13:16.425Z,15.00
2018-06-16T00:15:45.241Z,15.00
2018-06-16T00:18:14.014Z,15.10
2018-06-16T00:20:42.861Z,15.00
2018-06-16T00:23:11.725Z,15.00
2018-06-16T00:25:40.485Z,15.00
2018-06-16T00:28:09.247Z,15.00
2018-06-16T00:30:38.125Z,14.90
2018-06-16T00:33:07.058Z,14.90
2018-06-16T00:35:35.906Z,14.90
2018-06-16T00:38:04.805Z,14.90
2018-06-16T00:40:33.625Z,14.80
2018-06-16T00:43:02.430Z,14.80
2018-06-16T00:45:31.191Z,14.70
2018-06-16T00:48:00.029Z,14.70
2018-06-16T00:50:28.839Z,14.70
2018-06-16T00:52:57.585Z,14.70
2018-06-16T00:55:26.475Z,14.70
2018-06-16T00:57:55.302Z,14.70
2018-06-16T01:00:24.186Z,14.60
2018-06-16T01:02:52.941Z,14.60
2018-06-16T01:05:21.767Z,14.50
2018-06-16T01:07:51.436Z,14.50
2018-06-16T01:10:20.646Z,14.60
2018-06-16T01:12:49.483Z,14.60
2018-06-16T01:15:18.345Z,14.50
2018-06-16T01:17:47.095Z,14.60
2018-06-16T01:20:15.915Z,14.60
2018-06-16T01:22:44.759Z,14.60
2018-06-16T01:25:13.616Z,14.50
2018-06-16T01:27:42.337Z,14.50
2018-06-16T01:30:11.149Z,14.60
2018-06-16T01:32:39.993Z,14.50
2018-06-16T01:35:08.897Z,14.60
2018-06-16T01:37:37.671Z,14.60
2018-06-16T01:40:06.523Z,14.60
2018-06-16T01:42:35.308Z,14.50
2018-06-16T01:45:04.233Z,14.50
2018-06-16T01:47:33.006Z,14.50
2018-06-16T01:50:01.774Z,14.50
2018-06-16T01:52:30.558Z,14.30
2018-06-16T01:54:59.273Z,14.30
2018-06-16T01:57:28.035Z,14.20
2018-06-16T01:59:56.868Z,14.20
2018-06-16T02:02:25.758Z,14.10
2018-06-16T02:04:54.482Z,14.10
2018-06-16T02:07:23.273Z,14.00
2018-06-16T02:09:52.773Z,14.10
2018-06-16T02:12:21.585Z,14.10
2018-06-16T02:14:50.414Z,14.20
2018-06-16T02:17:19.150Z,14.20
2018-06-16T02:19:48.036Z,14.30
2018-06-16T02:22:16.730Z,14.30
2018-06-16T02:24:45.511Z,14.40
2018-06-16T02:27:14.311Z,14.50
2018-06-16T02:29:43.098Z,14.50
2018-06-16T02:32:11.931Z,14.50
2018-06-16T02:34:40.778Z,14.50
2018-06-16T02:37:09.539Z,14.50
2018-06-16T02:39:38.348Z,14.50
2018-06-16T02:42:07.187Z,14.50
2018-06-16T02:44:36.006Z,14.50
2018-06-16T02:47:04.823Z,14.50
2018-06-16T02:49:33.825Z,14.50
2018-06-16T02:52:02.706Z,14.50
2018-06-16T02:54:31.501Z,14.50
2018-06-16T02:57:00.229Z,14.50
2018-06-16T02:59:29.041Z,14.50
2018-06-16T03:01:57.874Z,14.50
2018-06-16T03:04:26.699Z,14.50
2018-06-16T03:06:55.411Z,14.50
2018-06-16T03:09:24.205Z,14.50
2018-06-16T03:11:58.053Z,14.50
2018-06-16T03:14:26.798Z,14.60
2018-06-16T03:16:55.617Z,14.60
2018-06-16T03:19:24.463Z,14.70
2018-06-16T03:21:53.284Z,14.60
2018-06-16T03:24:22.109Z,14.50
2018-06-16T03:26:50.959Z,14.50
2018-06-16T03:29:19.732Z,14.50
2018-06-16T03:31:48.524Z,14.40
2018-06-16T03:34:17.335Z,14.40
2018-06-16T03:36:46.120Z,14.50
2018-06-16T03:39:14.841Z,14.40
2018-06-16T03:41:43.686Z,14.40
2018-06-16T03:44:12.530Z,14.40
2018-06-16T03:46:41.280Z,14.40
2018-06-16T03:49:10.013Z,14.30
2018-06-16T03:51:38.782Z,14.30
2018-06-16T03:54:07.541Z,14.30
2018-06-16T03:56:36.297Z,14.30
2018-06-16T03:59:05.119Z,14.30
2018-06-16T04:01:33.951Z,14.40
2018-06-16T04:04:02.794Z,14.50
2018-06-16T04:06:31.574Z,14.50
2018-06-16T04:09:00.380Z,14.50
2018-06-16T04:11:29.168Z,14.60
2018-06-16T04:13:57.971Z,14.60
2018-06-16T04:16:26.745Z,14.60
2018-06-16T04:18:55.833Z,14.60
2018-06-16T04:21:24.608Z,14.60
2018-06-16T04:23:53.387Z,14.60
2018-06-16T04:26:22.463Z,14.60
2018-06-16T04:28:51.285Z,14.70
2018-06-16T04:31:20.032Z,14.70
2018-06-16T04:33:49.000Z,14.70
2018-06-16T04:36:17.975Z,14.80
2018-06-16T04:38:46.729Z,14.90
2018-06-16T04:41:15.549Z,14.90
2018-06-16T04:43:44.321Z,15.00
2018-06-16T04:46:12.986Z,15.10
2018-06-16T04:48:41.897Z,15.10
2018-06-16T04:51:10.724Z,15.30
2018-06-16T04:53:39.473Z,15.30
2018-06-16T04:56:08.218Z,15.40
2018-06-16T04:58:37.025Z,15.50
2018-06-16T05:01:05.822Z,15.40
2018-06-16T05:03:34.703Z,15.60
2018-06-16T05:06:03.508Z,15.60
2018-06-16T05:08:32.286Z,15.60
2018-06-16T05:11:01.085Z,15.70
2018-06-16T05:13:29.905Z,15.80
2018-06-16T05:15:58.882Z,15.90
2018-06-16T05:18:27.633Z,16.00
2018-06-16T05:20:56.357Z,16.10
2018-06-16T05:23:25.179Z,16.30
2018-06-16T05:25:53.924Z,16.60
2018-06-16T05:28:22.971Z,16.60
2018-06-16T05:30:51.816Z,16.60
2018-06-16T05:33:20.577Z,16.70
2018-06-16T05:35:49.314Z,16.70
2018-06-16T05:38:18.061Z,16.80
2018-06-16T05:40:47.038Z,16.90
2018-06-16T05:43:15.835Z,17.10
2018-06-16T05:45:44.480Z,17.40
2018-06-16T05:48:13.793Z,17.70
2018-06-16T05:50:42.317Z,18.10
2018-06-16T05:53:11.118Z,18.30
2018-06-16T05:55:39.892Z,18.50
2018-06-16T05:58:08.530Z,18.70
2018-06-16T06:00:37.008Z,18.70
2018-06-16T06:03:05.905Z,18.70
2018-06-16T06:05:34.421Z,18.60
2018-06-16T06:08:03.230Z,18.40
2018-06-16T06:10:31.747Z,18.50
2018-06-16T06:13:00.528Z,18.40
2018-06-16T06:15:29.078Z,18.30
2018-06-16T06:17:57.609Z,18.20
2018-06-16T06:20:26.258Z,18.40
2018-06-16T06:22:54.860Z,18.50
2018-06-16T06:25:23.493Z,18.60
2018-06-16T06:27:52.246Z,18.70
2018-06-16T06:30:20.793Z,18.90
2018-06-16T06:32:49.415Z,18.90
2018-06-16T06:35:18.044Z,18.80
2018-06-16T06:37:46.661Z,19.00
2018-06-16T06:42:43.550Z,19.50
2018-06-16T06:45:12.270Z,19.60
2018-06-16T06:47:40.974Z,19.80
2018-06-16T06:50:09.622Z,19.60
2018-06-16T06:52:38.165Z,20.10
2018-06-16T06:55:06.725Z,20.50
2018-06-16T06:57:35.428Z,21.40
2018-06-16T07:00:04.195Z,22.10
2018-06-16T07:02:32.934Z,22.30
2018-06-16T07:05:01.794Z,22.50
2018-06-16T07:07:30.580Z,22.60
2018-06-16T07:09:59.330Z,22.80
2018-06-16T07:12:28.078Z,22.70
2018-06-16T07:17:41.735Z,22.90
2018-06-16T07:20:29.772Z,23.00
2018-06-16T07:22:58.559Z,23.30
2018-06-16T07:25:27.648Z,23.30
2018-06-16T07:27:56.406Z,23.30
2018-06-16T07:30:25.296Z,23.00
2018-06-16T07:32:54.023Z,23.00
2018-06-16T07:35:22.826Z,22.80
2018-06-16T07:37:52.661Z,22.90
2018-06-16T07:40:25.047Z,22.40
2018-06-16T07:42:58.988Z,22.60
2018-06-16T07:45:27.834Z,22.80
2018-06-16T07:47:56.351Z,23.00
2018-06-16T07:50:25.239Z,23.30
2018-06-16T07:52:53.946Z,23.40
2018-06-16T07:55:22.706Z,23.80
2018-06-16T07:57:51.296Z,24.00
2018-06-16T08:00:19.880Z,23.90
2018-06-16T08:02:48.759Z,23.00
2018-06-16T08:05:17.426Z,23.00
2018-06-16T08:07:46.251Z,22.90
2018-06-16T08:10:15.016Z,23.20
2018-06-16T08:12:43.772Z,23.80
2018-06-16T08:15:12.666Z,24.00
2018-06-16T08:17:41.432Z,22.50
2018-06-16T08:20:10.169Z,23.30
2018-06-16T08:22:38.954Z,24.10
2018-06-16T08:25:07.725Z,23.50
2018-06-16T08:27:36.373Z,24.20
2018-06-16T08:30:05.388Z,24.50
2018-06-16T08:32:34.221Z,23.80
2018-06-16T08:35:02.899Z,23.40
2018-06-16T08:37:31.651Z,23.50
2018-06-16T08:40:00.388Z,24.40
2018-06-16T08:42:29.363Z,24.90
2018-06-16T08:44:58.030Z,23.70
2018-06-16T08:47:26.823Z,24.10
2018-06-16T08:49:55.537Z,24.70
2018-06-16T08:52:24.374Z,25.00
2018-06-16T08:54:53.463Z,25.20
2018-06-16T08:57:22.285Z,24.10
2018-06-16T08:59:51.053Z,23.30
2018-06-16T09:02:19.806Z,23.60
2018-06-16T09:04:48.497Z,24.50
2018-06-16T09:07:17.309Z,24.80
2018-06-16T09:09:46.026Z,24.90
2018-06-16T09:12:14.860Z,25.00
2018-06-16T09:14:43.573Z,24.90
2018-06-16T09:17:12.303Z,25.10
2018-06-16T09:19:41.045Z,25.50
2018-06-16T09:22:09.670Z,25.90
2018-06-16T09:24:38.335Z,26.30
2018-06-16T09:27:06.935Z,26.10
2018-06-16T09:29:35.918Z,26.20
2018-06-16T09:32:04.656Z,26.20
2018-06-16T09:34:33.475Z,26.40
2018-06-16T09:37:02.181Z,26.80
2018-06-16T09:39:30.690Z,27.20
2018-06-16T09:41:59.509Z,27.40
2018-06-16T09:44:28.317Z,26.50
2018-06-16T09:46:56.946Z,26.60
2018-06-16T09:49:25.513Z,25.30
2018-06-16T09:51:54.302Z,26.00
2018-06-16T09:54:23.061Z,26.50
2018-06-16T09:56:51.721Z,26.60
2018-06-16T09:59:20.302Z,26.80
2018-06-16T10:01:49.006Z,27.00
2018-06-16T10:04:17.558Z,27.20
2018-06-16T10:06:46.218Z,27.00
2018-06-16T10:09:14.921Z,25.70
2018-06-16T10:11:44.998Z,24.60
2018-06-16T10:14:13.754Z,24.60
2018-06-16T10:16:42.608Z,25.20
2018-06-16T10:19:11.403Z,26.00
2018-06-16T10:21:40.117Z,25.50
2018-06-16T10:24:08.737Z,25.80
2018-06-16T10:26:37.462Z,26.10
2018-06-16T10:29:06.293Z,26.80
2018-06-16T10:31:35.316Z,26.50
2018-06-16T10:34:04.352Z,26.50
2018-06-16T10:36:33.240Z,27.00
2018-06-16T10:39:02.007Z,27.30
2018-06-16T10:41:30.954Z,27.90
2018-06-16T10:43:59.489Z,28.30
2018-06-16T10:46:27.945Z,28.20
2018-06-16T10:48:56.414Z,28.30
2018-06-16T10:51:25.265Z,29.00
2018-06-16T10:53:53.991Z,29.30
2018-06-16T10:56:22.530Z,29.00
2018-06-16T10:58:51.316Z,29.20
2018-06-16T11:01:21.130Z,29.10
2018-06-16T11:03:50.010Z,29.20
2018-06-16T11:06:18.700Z,28.90
2018-06-16T11:08:47.390Z,28.20
2018-06-16T11:11:16.262Z,26.90
2018-06-16T11:13:45.016Z,25.90
2018-06-16T11:16:14.334Z,25.10
2018-06-16T11:18:50.258Z,24.90
2018-06-16T11:21:19.050Z,24.20
2018-06-16T11:23:47.842Z,24.00
2018-06-16T11:26:16.955Z,24.30
2018-06-16T11:28:45.689Z,24.50
2018-06-16T11:31:14.385Z,24.60
2018-06-16T11:33:43.281Z,24.30
2018-06-16T11:36:12.021Z,23.90
2018-06-16T11:38:40.754Z,23.90
2018-06-16T11:41:09.331Z,23.60
2018-06-16T11:43:38.403Z,23.80
2018-06-16T11:46:07.173Z,23.20
2018-06-16T11:48:35.819Z,22.90
2018-06-16T11:51:04.636Z,23.40
2018-06-16T11:53:34.444Z,23.70
2018-06-16T11:56:03.634Z,23.50
2018-06-16T11:58:32.293Z,23.20
2018-06-16T12:01:01.580Z,23.10
2018-06-16T12:03:30.153Z,23.30
2018-06-16T12:05:58.709Z,23.40
2018-06-16T12:08:27.507Z,23.70
2018-06-16T12:10:56.190Z,23.40
2018-06-16T12:13:24.740Z,23.10
2018-06-16T12:15:53.432Z,23.00
2018-06-16T12:18:21.993Z,23.50
2018-06-16T12:20:50.612Z,23.70
2018-06-16T12:23:19.180Z,23.90
2018-06-16T12:25:48.045Z,24.10
2018-06-16T12:28:16.563Z,24.00
2018-06-16T12:30:45.154Z,23.60
2018-06-16T12:33:17.178Z,23.70
2018-06-16T12:35:45.977Z,23.60
2018-06-16T12:38:14.519Z,23.40
2018-06-16T12:40:43.286Z,23.50
2018-06-16T12:43:12.313Z,23.60
2018-06-16T12:45:41.798Z,24.30
2018-06-16T12:48:10.674Z,25.00
2018-06-16T12:50:39.332Z,26.20
2018-06-16T12:53:09.245Z,26.90
2018-06-16T12:55:37.820Z,25.70
2018-06-16T12:58:06.276Z,24.40
2018-06-16T13:00:34.837Z,24.00
2018-06-16T13:03:03.465Z,23.70
2018-06-16T13:05:31.972Z,24.10
2018-06-16T13:08:00.522Z,24.10
2018-06-16T13:10:29.092Z,23.70
2018-06-16T13:12:57.945Z,24.30
2018-06-16T13:15:26.459Z,24.20
2018-06-16T13:17:54.921Z,23.80
2018-06-16T13:20:23.516Z,24.20
2018-06-16T13:22:52.149Z,24.00
2018-06-16T13:25:20.744Z,23.70
2018-06-16T13:27:49.577Z,23.60
2018-06-16T13:30:18.114Z,24.20
2018-06-16T13:32:46.908Z,24.00
2018-06-16T13:35:15.596Z,24.00
2018-06-16T13:37:44.372Z,23.50
2018-06-16T13:40:12.865Z,23.50
2018-06-16T13:42:41.762Z,23.70
2018-06-16T13:45:10.321Z,23.90
2018-06-16T13:47:38.997Z,24.30
2018-06-16T13:50:07.443Z,24.30
2018-06-16T13:52:36.121Z,24.20
2018-06-16T13:55:04.733Z,24.10
2018-06-16T13:57:33.165Z,23.90
2018-06-16T14:00:01.890Z,23.60
2018-06-16T14:02:30.910Z,23.40
2018-06-16T14:04:59.409Z,23.30
2018-06-16T14:07:27.978Z,23.10
2018-06-16T14:09:56.410Z,22.80
2018-06-16T14:12:25.169Z,23.00
2018-06-16T14:14:53.933Z,22.80
2018-06-16T14:17:22.703Z,22.60
2018-06-16T14:19:51.186Z,22.90
2018-06-16T14:22:19.692Z,22.60
2018-06-16T14:24:48.205Z,22.10
2018-06-16T14:27:16.694Z,22.30
2018-06-16T14:29:45.202Z,22.60
2018-06-16T14:32:13.734Z,22.70
2018-06-16T14:34:42.245Z,22.30
2018-06-16T14:37:10.810Z,22.00
2018-06-16T14:39:39.367Z,21.40
2018-06-16T14:42:08.126Z,21.00
2018-06-16T14:44:36.765Z,20.80
2018-06-16T14:47:05.377Z,20.50
2018-06-16T14:49:33.983Z,20.30
2018-06-16T14:52:02.708Z,20.10
2018-06-16T14:54:31.447Z,20.10
2018-06-16T14:57:00.327Z,20.10
2018-06-16T14:59:28.846Z,20.20
2018-06-16T15:01:57.754Z,20.30
2018-06-16T15:04:26.294Z,20.30
2018-06-16T15:06:55.014Z,20.20
2018-06-16T15:09:23.761Z,20.30
2018-06-16T15:11:52.241Z,20.60
2018-06-16T15:14:20.778Z,20.90
2018-06-16T15:16:49.478Z,21.00
2018-06-16T15:19:18.123Z,21.10
2018-06-16T15:21:46.585Z,21.20
2018-06-16T15:24:15.557Z,21.30
2018-06-16T15:26:44.074Z,21.30
2018-06-16T15:29:12.603Z,21.50
2018-06-16T15:31:41.241Z,21.80
2018-06-16T15:34:09.686Z,22.00
2018-06-16T15:36:38.234Z,22.10
2018-06-16T15:39:09.452Z,21.80
2018-06-16T15:41:37.881Z,22.00
2018-06-16T15:44:06.631Z,22.20
2018-06-16T15:46:35.126Z,22.40
2018-06-16T15:49:15.873Z,22.40
2018-06-16T15:51:44.573Z,22.40
2018-06-16T15:54:13.285Z,22.40
2018-06-16T15:56:41.978Z,22.30
2018-06-16T15:59:10.670Z,22.00
2018-06-16T16:01:52.943Z,22.20
2018-06-16T16:04:21.733Z,22.00
2018-06-16T16:06:55.751Z,21.90
2018-06-16T16:09:24.633Z,21.90
2018-06-16T16:11:54.258Z,21.80
2018-06-16T16:14:22.969Z,21.70
2018-06-16T16:16:51.863Z,21.80
2018-06-16T16:19:20.392Z,21.70
2018-06-16T16:21:49.094Z,21.10
2018-06-16T16:24:18.023Z,21.10
2018-06-16T16:26:46.585Z,20.90
2018-06-16T16:29:16.678Z,21.00
2018-06-16T16:31:45.633Z,20.80
2018-06-16T16:34:14.386Z,20.90
2018-06-16T16:36:43.137Z,20.70
2018-06-16T16:39:22.486Z,20.60
2018-06-16T16:41:54.770Z,20.40
2018-06-16T16:44:23.501Z,20.30
2018-06-16T16:46:52.151Z,20.20
2018-06-16T16:49:20.892Z,20.10
2018-06-16T16:51:49.446Z,19.90
2018-06-16T16:54:18.094Z,20.00
2018-06-16T16:56:46.781Z,20.20
2018-06-16T16:59:15.777Z,20.40
2018-06-16T17:01:44.513Z,20.30
2018-06-16T17:04:13.233Z,20.50
2018-06-16T17:06:41.849Z,20.60
2018-06-16T17:09:11.493Z,20.70
2018-06-16T17:11:40.296Z,20.70
2018-06-16T17:14:09.078Z,20.50
2018-06-16T17:16:37.953Z,20.50
2018-06-16T17:19:06.753Z,20.40
2018-06-16T17:21:35.457Z,20.40
2018-06-16T17:24:04.121Z,20.50
2018-06-16T17:26:33.014Z,20.30
2018-06-16T17:29:01.944Z,20.10
2018-06-16T17:31:39.106Z,20.20
2018-06-16T17:34:09.119Z,20.30
2018-06-16T17:36:38.040Z,20.30
2018-06-16T17:39:08.328Z,20.50
2018-06-16T17:41:56.235Z,20.20
2018-06-16T17:44:25.111Z,20.10
2018-06-16T17:46:53.715Z,20.10
2018-06-16T17:49:25.195Z,20.10
2018-06-16T17:51:53.814Z,20.00
2018-06-16T17:54:22.570Z,19.90
2018-06-16T17:56:51.466Z,19.80
2018-06-16T17:59:20.047Z,19.70
2018-06-16T18:01:48.907Z,19.70
2018-06-16T18:04:18.113Z,19.70
2018-06-16T18:06:46.921Z,19.80
2018-06-16T18:09:15.460Z,19.70
2018-06-16T18:11:44.381Z,19.70
2018-06-16T18:14:14.967Z,19.80
2018-06-16T18:16:46.038Z,19.80
2018-06-16T18:19:15.803Z,19.60
2018-06-16T18:21:44.509Z,19.60
2018-06-16T18:24:13.205Z,19.50
2018-06-16T18:26:41.991Z,19.30
2018-06-16T18:29:10.607Z,19.30
2018-06-16T18:31:45.499Z,19.10
2018-06-16T18:34:17.160Z,19.10
2018-06-16T18:36:46.006Z,19.10
2018-06-16T18:39:14.716Z,19.00
2018-06-16T18:41:43.528Z,19.00
2018-06-16T18:44:12.266Z,18.90
2018-06-16T18:46:47.835Z,18.80
2018-06-16T18:49:16.534Z,18.60
2018-06-16T18:51:45.336Z,18.70
2018-06-16T18:54:14.549Z,18.70
2018-06-16T18:56:43.501Z,18.60
2018-06-16T18:59:12.433Z,18.60
2018-06-16T19:01:41.222Z,18.40
2018-06-16T19:04:10.132Z,18.40
2018-06-16T19:06:39.717Z,18.40
2018-06-16T19:09:09.250Z,18.50
2018-06-16T19:11:52.977Z,18.50
2018-06-16T19:14:21.777Z,18.40
2018-06-16T19:16:50.551Z,18.30
2018-06-16T19:19:19.388Z,18.30
2018-06-16T19:21:48.494Z,18.30
2018-06-16T19:24:17.342Z,18.10
2018-06-16T19:26:46.097Z,18.10
2018-06-16T19:29:14.830Z,18.10
2018-06-16T19:31:43.665Z,18.10
2018-06-16T19:34:12.726Z,18.20
2018-06-16T19:36:41.504Z,18.10
2018-06-16T19:39:11.807Z,18.10
2018-06-16T19:41:40.534Z,18.00
2018-06-16T19:44:09.696Z,18.00
2018-06-16T19:46:38.571Z,18.00
2018-06-16T19:49:07.796Z,17.90
2018-06-16T19:51:36.522Z,17.90
2018-06-16T19:54:05.264Z,17.90
2018-06-16T19:56:37.444Z,17.90
2018-06-16T19:59:08.355Z,17.90
2018-06-16T20:01:37.099Z,17.70
2018-06-16T20:04:06.170Z,17.60
2018-06-16T20:06:37.516Z,17.50
2018-06-16T20:09:07.197Z,17.50
2018-06-16T20:11:39.460Z,17.50
2018-06-16T20:14:09.678Z,17.40
2018-06-16T20:19:32.504Z,17.30
2018-06-16T20:22:01.242Z,17.20
2018-06-16T20:24:30.014Z,17.10
2018-06-16T20:27:00.038Z,17.00
2018-06-16T20:29:37.286Z,16.90
2018-06-16T20:32:08.245Z,16.90
2018-06-16T20:34:37.485Z,16.80
2018-06-16T20:37:10.218Z,16.70
2018-06-16T20:39:38.945Z,16.60
2018-06-16T20:42:08.360Z,16.60
2018-06-16T20:44:37.140Z,16.50
2018-06-16T20:47:06.596Z,16.40
2018-06-16T20:49:35.414Z,16.30
2018-06-16T20:52:04.099Z,16.30
2018-06-16T20:54:39.112Z,16.20
2018-06-16T20:57:07.842Z,16.20
2018-06-16T20:59:36.792Z,16.20
2018-06-16T21:02:05.729Z,16.20
2018-06-16T21:07:27.337Z,16.20
2018-06-16T21:13:13.261Z,16.10
2018-06-16T21:15:44.130Z,16.10
2018-06-16T21:18:14.176Z,16.10
2018-06-16T21:20:43.673Z,16.00
2018-06-16T21:23:12.506Z,16.00
2018-06-16T21:25:41.184Z,15.90
2018-06-16T21:28:10.667Z,15.80
2018-06-16T21:30:39.845Z,15.70
2018-06-16T21:33:08.642Z,15.70
2018-06-16T21:35:37.428Z,15.70
2018-06-16T21:38:06.518Z,15.60
2018-06-16T21:40:44.620Z,15.50
2018-06-16T21:43:13.854Z,15.50
2018-06-16T21:45:43.975Z,15.50
2018-06-16T21:48:13.976Z,15.40
2018-06-16T21:50:43.121Z,15.30
2018-06-16T21:53:17.670Z,15.30
2018-06-16T21:55:46.572Z,15.30
2018-06-16T22:01:15.008Z,15.30
2018-06-16T22:03:44.151Z,15.20
2018-06-16T22:06:15.019Z,15.20
2018-06-16T22:08:45.656Z,15.30
2018-06-16T22:11:14.408Z,15.30
2018-06-16T22:13:43.226Z,15.20
2018-06-16T22:16:12.097Z,15.20
2018-06-16T22:18:41.185Z,15.20
2018-06-16T22:21:10.137Z,15.10
2018-06-16T22:23:39.018Z,15.00
2018-06-16T22:26:07.794Z,15.00
2018-06-16T22:28:36.587Z,15.00
2018-06-16T22:31:05.663Z,14.90
2018-06-16T22:33:34.667Z,14.90
2018-06-16T22:36:03.543Z,14.80
2018-06-16T22:38:32.427Z,14.70
2018-06-16T22:41:26.075Z,14.60
2018-06-16T22:43:55.343Z,14.60
2018-06-16T22:46:24.861Z,14.50
2018-06-16T22:48:59.030Z,14.40
2018-06-16T22:51:28.629Z,14.40
2018-06-16T22:53:57.468Z,14.30
2018-06-16T22:56:26.573Z,14.30
2018-06-16T22:58:59.075Z,14.30
2018-06-16T23:01:28.434Z,14.30
2018-06-16T23:03:57.256Z,14.20
2018-06-16T23:09:08.297Z,14.20
2018-06-16T23:11:37.415Z,14.10
2018-06-16T23:14:06.420Z,14.10
2018-06-16T23:16:35.105Z,14.10
2018-06-16T23:19:03.989Z,14.10
2018-06-16T23:21:32.710Z,14.00
2018-06-16T23:24:01.353Z,14.00
2018-06-16T23:26:30.054Z,14.00
2018-06-16T23:28:58.920Z,13.90
2018-06-16T23:31:27.664Z,13.90
2018-06-16T23:34:28.185Z,13.90
2018-06-16T23:36:56.950Z,13.90
2018-06-16T23:39:29.620Z,13.80
2018-06-16T23:45:11.218Z,13.70
2018-06-16T23:47:59.251Z,13.60
2018-06-16T23:50:28.141Z,13.50
2018-06-16T23:53:01.179Z,13.50
2018-06-16T23:55:30.020Z,13.50
2018-06-16T23:57:58.659Z,13.50
